Time;durP1;ratioP1;P1;durP2;ratioP2;P2;SDS_P1;SDS_P2;PMS_P1;PMS_P2;Temp;Humidity;BMP_temperature;BMP_pressure;BME280_temperature;BME280_humidity;BME280_pressure;Samples;Min_cycle;Max_cycle;Signal;HPM_P1;HPM_P2
2022/12/16 00:00:17;;;;;;;33.35;20.60;;;0.00;99.90;;;;;;5022221;28;20140;-75
2022/12/16 00:02:46;;;;;;;34.40;20.40;;;-0.60;99.90;;;;;;5029225;28;20272;-76
2022/12/16 00:05:14;;;;;;;30.27;19.30;;;0.10;99.90;;;;;;5043959;28;20055;-76
2022/12/16 00:07:40;;;;;;;33.50;20.65;;;0.10;99.90;;;;;;5043471;28;20037;-76
2022/12/16 00:10:07;;;;;;;33.20;20.92;;;0.20;99.90;;;;;;5032171;28;20040;-76
2022/12/16 00:12:32;;;;;;;33.53;20.75;;;0.30;99.90;;;;;;5032324;28;20033;-76
2022/12/16 00:14:58;;;;;;;42.70;22.05;;;0.40;99.90;;;;;;5039157;28;20032;-76
2022/12/16 00:17:24;;;;;;;34.38;22.92;;;0.40;99.90;;;;;;5033020;28;20038;-75
2022/12/16 00:19:49;;;;;;;36.80;22.80;;;0.40;99.90;;;;;;5034863;28;20029;-75
2022/12/16 00:22:15;;;;;;;34.25;21.80;;;0.40;99.90;;;;;;5068077;28;20041;-75
2022/12/16 00:24:41;;;;;;;33.55;21.60;;;1.30;99.90;;;;;;5031416;28;20067;-75
2022/12/16 00:27:12;;;;;;;32.05;20.25;;;0.30;99.90;;;;;;5033356;28;20033;-77
2022/12/16 00:29:37;;;;;;;34.17;21.33;;;0.40;99.90;;;;;;5043358;28;20025;-76
2022/12/16 00:32:06;;;;;;;34.08;20.42;;;1.10;99.90;;;;;;5022081;28;20049;-76
2022/12/16 00:34:32;;;;;;;33.03;19.58;;;0.40;99.90;;;;;;5033322;28;20071;-75
2022/12/16 00:36:58;;;;;;;29.02;17.98;;;0.30;99.90;;;;;;5039865;28;20435;-75
2022/12/16 00:39:24;;;;;;;27.33;17.55;;;0.40;99.90;;;;;;5054039;28;20048;-75
2022/12/16 00:41:50;;;;;;;25.98;16.27;;;1.80;99.90;;;;;;5022510;28;20037;-75
2022/12/16 00:44:16;;;;;;;26.35;16.02;;;0.60;99.90;;;;;;5029011;28;20101;-75
2022/12/16 00:46:42;;;;;;;23.40;16.42;;;0.50;99.90;;;;;;5042057;28;20052;-75
2022/12/16 00:49:08;;;;;;;25.55;15.25;;;0.70;99.90;;;;;;5047866;28;20494;-75
2022/12/16 00:51:33;;;;;;;20.98;15.45;;;0.80;99.90;;;;;;5034835;28;20080;-75
2022/12/16 00:53:59;;;;;;;26.33;14.75;;;-0.80;99.90;;;;;;5022319;28;20100;-75
2022/12/16 00:56:25;;;;;;;24.60;15.07;;;0.80;99.90;;;;;;5021698;28;20037;-77
2022/12/16 00:58:51;;;;;;;20.75;14.50;;;0.80;99.90;;;;;;5052626;28;20021;-75
2022/12/16 01:01:16;;;;;;;21.75;14.07;;;0.90;99.90;;;;;;5013188;28;20105;-75
2022/12/16 01:03:42;;;;;;;19.55;13.27;;;2.10;99.90;;;;;;5008546;28;20220;-75
2022/12/16 01:06:17;;;;;;;23.15;12.30;;;1.70;99.90;;;;;;5034826;28;20032;-75
2022/12/16 01:08:49;;;;;;;16.92;11.20;;;0.00;99.90;;;;;;5030797;28;20060;-75
2022/12/16 01:11:17;;;;;;;15.55;9.40;;;1.00;99.90;;;;;;5039990;28;20108;-74
2022/12/16 01:13:43;;;;;;;11.45;6.90;;;1.00;99.90;;;;;;5032998;28;20072;-74
2022/12/16 01:16:10;;;;;;;12.18;7.28;;;1.60;99.90;;;;;;5038237;28;20034;-74
2022/12/16 01:18:36;;;;;;;11.65;6.18;;;1.30;99.90;;;;;;5039950;28;20026;-73
2022/12/16 01:21:07;;;;;;;8.35;5.22;;;1.40;99.90;;;;;;5034871;28;20031;-72
2022/12/16 01:23:33;;;;;;;13.55;5.30;;;1.50;99.90;;;;;;5042560;28;20026;-75
2022/12/16 01:26:00;;;;;;;10.90;5.88;;;2.70;99.90;;;;;;5032238;28;20041;-74
2022/12/16 01:28:29;;;;;;;9.95;6.15;;;2.40;99.90;;;;;;5028134;28;20052;-72
2022/12/16 01:31:06;;;;;;;12.38;5.95;;;1.70;99.90;;;;;;5042342;28;21215;-74
2022/12/16 01:33:32;;;;;;;9.73;5.63;;;1.70;99.90;;;;;;5025676;28;20061;-74
2022/12/16 01:36:03;;;;;;;9.60;5.63;;;1.70;99.90;;;;;;5041401;28;20081;-75
2022/12/16 01:38:35;;;;;;;14.55;5.47;;;1.70;99.90;;;;;;5050244;28;20057;-75
2022/12/16 01:41:01;;;;;;;8.00;4.80;;;1.90;99.90;;;;;;5061195;28;20043;-75
2022/12/16 01:43:30;;;;;;;7.70;5.10;;;1.70;99.90;;;;;;5044826;28;20029;-75
2022/12/16 01:46:15;;;;;;;7.70;5.20;;;1.70;99.90;;;;;;5047385;28;20043;-75
2022/12/16 01:48:57;;;;;;;12.30;4.70;;;1.80;99.90;;;;;;5021878;28;20483;-75
2022/12/16 01:51:33;;;;;;;9.63;5.22;;;1.70;99.90;;;;;;5061427;28;20288;-75
2022/12/16 01:54:11;;;;;;;7.80;5.20;;;1.80;99.90;;;;;;5037796;28;20332;-75
2022/12/16 01:56:43;;;;;;;8.00;4.95;;;1.90;99.90;;;;;;5033939;28;20038;-75
2022/12/16 01:59:13;;;;;;;11.65;5.05;;;1.70;99.90;;;;;;5049239;28;20108;-75
2022/12/16 02:01:41;;;;;;;7.15;5.30;;;1.80;99.90;;;;;;5041322;28;20079;-75
2022/12/16 02:04:07;;;;;;;7.63;5.00;;;1.90;99.90;;;;;;5036759;28;20032;-75
2022/12/16 02:06:32;;;;;;;8.18;4.93;;;1.90;99.90;;;;;;5050195;28;20316;-75
2022/12/16 02:09:05;;;;;;;9.50;4.95;;;1.80;99.90;;;;;;5052182;28;20037;-75
2022/12/16 02:11:46;;;;;;;9.52;6.07;;;1.90;99.90;;;;;;5049519;28;20041;-75
2022/12/16 02:14:48;;;;;;;9.85;5.05;;;1.80;99.90;;;;;;5046386;28;20041;-75
2022/12/16 02:17:51;;;;;;;11.50;5.45;;;1.90;99.90;;;;;;5071406;28;20239;-75
2022/12/16 02:20:58;;;;;;;8.07;5.28;;;1.80;99.90;;;;;;5027328;28;20077;-75
2022/12/16 02:23:35;;;;;;;6.38;4.80;;;1.80;99.90;;;;;;5033731;28;20131;-75
2022/12/16 02:26:10;;;;;;;7.95;5.38;;;1.80;99.90;;;;;;5052434;28;20096;-75
2022/12/16 02:28:54;;;;;;;;;;;1.80;99.90;;;;;;5031008;28;20033;-75
2022/12/16 02:31:41;;;;;;;7.57;5.10;;;1.80;99.90;;;;;;5031430;28;19913;-74
2022/12/16 02:34:19;;;;;;;6.78;4.90;;;1.90;99.90;;;;;;5060099;28;20044;-75
2022/12/16 02:36:52;;;;;;;6.18;4.85;;;1.80;99.90;;;;;;5036550;28;20231;-75
2022/12/16 02:39:23;;;;;;;8.10;5.00;;;2.30;99.90;;;;;;5039523;28;20041;-75
2022/12/16 02:41:56;;;;;;;8.00;5.38;;;1.80;99.90;;;;;;5035946;28;20100;-78
2022/12/16 02:44:42;;;;;;;7.75;4.65;;;3.40;99.90;;;;;;5038381;28;20037;-76
2022/12/16 02:47:08;;;;;;;6.93;4.63;;;1.80;99.90;;;;;;5015390;28;20324;-75
2022/12/16 02:49:33;;;;;;;7.07;4.43;;;1.80;99.90;;;;;;5018822;28;20110;-75
2022/12/16 02:52:45;;;;;;;6.78;4.38;;;3.50;99.90;;;;;;5018978;28;20040;-75
2022/12/16 02:55:15;;;;;;;7.78;4.63;;;1.80;99.90;;;;;;5062161;28;20102;-74
2022/12/16 02:57:58;;;;;;;6.30;4.40;;;2.00;99.90;;;;;;5031709;28;20484;-75
2022/12/16 03:00:27;;;;;;;6.15;4.45;;;1.90;99.90;;;;;;5039166;28;20092;-75
2022/12/16 03:03:04;;;;;;;7.68;5.15;;;3.20;99.90;;;;;;5044190;28;20108;-75
2022/12/16 03:05:30;;;;;;;12.32;6.57;;;2.20;99.90;;;;;;5041050;28;20426;-75
2022/12/16 03:07:59;;;;;;;11.32;6.18;;;1.90;99.90;;;;;;5048000;28;20064;-76
2022/12/16 03:10:29;;;;;;;10.32;6.07;;;1.90;99.90;;;;;;5039591;28;20033;-76
2022/12/16 03:12:58;;;;;;;11.05;7.60;;;1.90;99.90;;;;;;5038662;28;20052;-76
2022/12/16 03:15:27;;;;;;;14.50;8.90;;;3.10;99.90;;;;;;5040064;28;20029;-76
2022/12/16 03:17:56;;;;;;;14.88;10.70;;;2.00;99.90;;;;;;5064015;28;20033;-76
2022/12/16 03:20:32;;;;;;;18.63;11.85;;;1.90;99.90;;;;;;5060147;28;20036;-77
2022/12/16 03:23:03;;;;;;;21.13;13.60;;;2.10;99.90;;;;;;5041534;28;20364;-77
2022/12/16 03:25:34;;;;;;;20.48;13.50;;;2.20;99.90;;;;;;5049562;28;20044;-77
2022/12/16 03:28:24;;;;;;;21.88;13.10;;;3.60;99.90;;;;;;5053284;28;20052;-77
2022/12/16 03:31:00;;;;;;;20.77;14.90;;;2.20;99.90;;;;;;5053891;28;20220;-76
2022/12/16 03:33:38;;;;;;;24.27;15.82;;;2.30;99.90;;;;;;5041639;28;20088;-78
2022/12/16 03:36:20;;;;;;;20.30;15.13;;;2.10;99.90;;;;;;5041886;28;20045;-76
2022/12/16 03:38:47;;;;;;;28.50;17.23;;;3.10;99.90;;;;;;5055732;28;20041;-77
2022/12/16 03:41:15;;;;;;;26.33;17.05;;;2.30;99.90;;;;;;5063458;28;20037;-77
2022/12/16 03:43:41;;;;;;;25.35;16.90;;;2.40;99.90;;;;;;5036298;28;20148;-77
2022/12/16 03:46:08;;;;;;;25.83;17.25;;;2.70;99.90;;;;;;5042372;28;20040;-76
2022/12/16 03:48:34;;;;;;;30.55;17.48;;;3.50;99.90;;;;;;5020412;28;20038;-76
2022/12/16 03:51:00;;;;;;;28.90;16.48;;;3.20;99.90;;;;;;5045671;28;20112;-75
2022/12/16 03:53:26;;;;;;;23.73;16.30;;;2.30;99.90;;;;;;5030992;28;20030;-76
2022/12/16 03:55:53;;;;;;;29.90;17.38;;;2.00;99.90;;;;;;5037873;28;20373;-76
2022/12/16 03:58:19;;;;;;;27.13;17.75;;;3.70;99.90;;;;;;5037141;28;20048;-74
2022/12/16 04:00:45;;;;;;;26.73;17.70;;;1.90;99.90;;;;;;5037452;28;20033;-76
2022/12/16 04:03:11;;;;;;;33.50;20.73;;;2.10;99.90;;;;;;5037598;28;20093;-78
2022/12/16 04:05:37;;;;;;;28.70;17.98;;;1.90;99.90;;;;;;5019904;28;20220;-76
2022/12/16 04:08:03;;;;;;;31.77;19.92;;;1.90;99.90;;;;;;5028941;28;20029;-75
2022/12/16 04:24:37;;;;;;;37.43;22.03;;;1.50;99.90;;;;;;5037256;28;20045;-77
2022/12/16 04:34:24;;;;;;;37.60;22.88;;;1.40;99.90;;;;;;5028385;28;20107;-77
